createdAt,value
2023-04-08T12:40:39.996Z,59.68
2023-04-08T12:43:10.240Z,53.71
2023-04-08T12:45:37.169Z,50.35
2023-04-08T12:48:04.130Z,44.71
2023-04-08T12:50:31.096Z,42.54
2023-04-08T12:52:58.500Z,44.66
2023-04-08T12:55:25.475Z,44.69
2023-04-08T12:57:52.983Z,45.41
2023-04-08T13:00:19.941Z,46.69
2023-04-08T13:02:47.088Z,47.56
2023-04-08T13:05:14.127Z,48.29
2023-04-08T13:07:41.609Z,50.40
2023-04-08T13:10:09.358Z,50.74
2023-04-08T13:12:36.135Z,51.92
2023-04-08T13:15:02.957Z,53.24
2023-04-08T13:17:29.712Z,53.94
2023-04-08T13:19:56.508Z,53.75
2023-04-08T13:22:23.290Z,55.63
2023-04-08T13:24:50.050Z,52.96
2023-04-08T13:27:16.794Z,50.74
2023-04-08T13:29:43.639Z,46.88
2023-04-08T13:32:14.581Z,46.36
2023-04-08T13:34:42.714Z,47.46
2023-04-08T13:37:09.632Z,47.46
2023-04-08T13:39:36.440Z,47.19
2023-04-08T13:42:03.276Z,46.94
2023-04-08T13:44:30.151Z,45.49
2023-04-08T13:46:56.895Z,46.92
2023-04-08T13:49:23.991Z,48.54
2023-04-08T13:51:51.068Z,46.69
2023-04-08T13:54:18.104Z,48.65
2023-04-08T13:56:44.931Z,48.03
2023-04-08T13:59:11.680Z,50.44
2023-04-08T14:01:40.878Z,49.86
2023-04-08T14:04:07.753Z,47.71
2023-04-08T14:06:36.368Z,45.80
2023-04-08T14:09:03.268Z,46.83
2023-04-08T14:11:30.118Z,50.81
2023-04-08T14:13:57.072Z,49.89
2023-04-08T14:16:23.822Z,51.05
2023-04-08T14:18:51.249Z,49.85
2023-04-08T14:21:18.947Z,49.09
2023-04-08T14:23:47.067Z,49.14
2023-04-08T14:26:13.912Z,51.04
2023-04-08T14:28:40.784Z,51.35
2023-04-08T14:31:07.743Z,49.48
2023-04-08T14:33:34.606Z,50.52
2023-04-08T14:36:01.561Z,49.80
2023-04-08T14:38:28.370Z,49.01
2023-04-08T14:40:55.223Z,49.48
2023-04-08T14:43:22.045Z,49.88
2023-04-08T14:45:50.410Z,51.01
2023-04-08T14:48:19.286Z,49.14
2023-04-08T14:50:46.768Z,47.64
2023-04-08T14:53:13.770Z,46.65
2023-04-08T14:55:41.177Z,47.23
2023-04-08T14:58:08.067Z,47.67
2023-04-08T15:00:34.930Z,48.24
2023-04-08T15:03:01.830Z,49.33
2023-04-08T15:05:28.878Z,49.27
2023-04-08T15:07:55.825Z,49.93
2023-04-08T15:10:22.755Z,49.67
2023-04-08T15:12:49.624Z,47.86
2023-04-08T15:15:16.756Z,47.76
2023-04-08T15:17:43.627Z,47.44
2023-04-08T15:20:11.189Z,48.39
2023-04-08T15:22:37.991Z,47.94
2023-04-08T15:25:05.729Z,48.45
2023-04-08T15:27:33.238Z,47.66
2023-04-08T15:30:00.052Z,48.30
2023-04-08T15:32:27.490Z,48.78
2023-04-08T15:34:54.580Z,47.58
2023-04-08T15:37:22.922Z,47.27
2023-04-08T15:39:49.668Z,49.21
2023-04-08T15:42:16.638Z,48.94
2023-04-08T15:44:44.475Z,49.21
2023-04-08T15:47:11.490Z,49.59
2023-04-08T15:49:39.078Z,50.73
2023-04-08T15:52:07.282Z,50.15
2023-04-08T15:54:34.574Z,50.01
2023-04-08T15:57:04.426Z,50.26
2023-04-08T15:59:31.687Z,49.79
2023-04-08T16:01:59.005Z,49.93
2023-04-08T16:04:25.902Z,49.42
2023-04-08T16:06:52.836Z,49.62
2023-04-08T16:09:25.579Z,48.30
2023-04-08T16:11:53.235Z,48.94
2023-04-08T16:14:20.214Z,47.88
2023-04-08T16:16:47.448Z,48.75
2023-04-08T16:19:14.521Z,48.85
2023-04-08T16:21:41.674Z,48.35
2023-04-08T16:24:08.652Z,48.76
2023-04-08T16:26:35.404Z,50.38
